Wetterdaten: Woche 24.03.14 - 30.03.14 (KW13)
Datum Zeit Temp. A. Feuchte A. Luftdruck Regen Wind Richtung Taupunkt Windchill Windben
24.03.2014 00:00 4,9 C 82 % 1005,7 hPa 0,0 l/m 5,7 km/h N 2,1 C 4,8 C 14,9 km/h
24.03.2014 01:00 4,9 C 82 % 1005,7 hPa 0,0 l/m 5,0 km/h N 2,1 C 4,9 C 13,3 km/h
24.03.2014 02:00 4,9 C 81 % 1005,2 hPa 0,0 l/m 5,8 km/h N 1,9 C 4,7 C 16,1 km/h
24.03.2014 03:00 5,0 C 80 % 1005,5 hPa 0,0 l/m 5,6 km/h N 1,8 C 5,0 C 15,7 km/h
24.03.2014 04:00 5,0 C 80 % 1005,5 hPa 0,0 l/m 5,8 km/h N 1,8 C 4,6 C 15,7 km/h
24.03.2014 05:00 4,9 C 81 % 1005,8 hPa 0,0 l/m 5,8 km/h N 1,8 C 4,8 C 14,9 km/h
24.03.2014 06:00 4,9 C 81 % 1006,3 hPa 0,0 l/m 5,1 km/h N 1,9 C 4,7 C 14,1 km/h
24.03.2014 07:00 4,9 C 82 % 1007,0 hPa 0,5 l/m 2,8 km/h N 2,0 C 4,9 C 10,1 km/h
24.03.2014 08:00 5,3 C 81 % 1006,5 hPa 0,0 l/m 7,6 km/h N 2,4 C 3,9 C 20,1 km/h
24.03.2014 09:00 6,2 C 77 % 1007,0 hPa 0,0 l/m 10,4 km/h N 2,5 C 3,3 C 26,9 km/h
24.03.2014 10:00 6,7 C 76 % 1007,4 hPa 0,0 l/m 8,9 km/h N 2,8 C 4,8 C 23,3 km/h
24.03.2014 11:00 6,8 C 74 % 1007,1 hPa 0,0 l/m 11,6 km/h N 2,4 C 3,2 C 27,0 km/h
24.03.2014 12:00 6,8 C 74 % 1007,3 hPa 0,0 l/m 12,4 km/h N 2,4 C 2,6 C 27,7 km/h
24.03.2014 13:00 7,2 C 72 % 1006,8 hPa 0,0 l/m 12,6 km/h N 2,5 C 3,0 C 30,2 km/h
24.03.2014 14:00 7,3 C 70 % 1007,1 hPa 0,0 l/m 12,0 km/h N 2,2 C 3,4 C 28,5 km/h
24.03.2014 15:00 7,3 C 70 % 1007,2 hPa 0,0 l/m 13,0 km/h N 2,3 C 2,9 C 29,4 km/h
24.03.2014 16:00 7,2 C 72 % 1007,1 hPa 0,0 l/m 13,1 km/h N 2,4 C 2,7 C 27,4 km/h
24.03.2014 17:00 6,9 C 74 % 1007,6 hPa 0,0 l/m 10,1 km/h N 2,5 C 4,1 C 24,1 km/h
24.03.2014 18:00 6,3 C 76 % 1007,7 hPa 0,0 l/m 11,4 km/h N 2,3 C 2,6 C 25,8 km/h
24.03.2014 19:00 5,3 C 76 % 1008,3 hPa 0,0 l/m 11,9 km/h N 1,5 C 1,2 C 27,0 km/h
24.03.2014 20:00 4,8 C 78 % 1008,8 hPa 0,0 l/m 10,0 km/h N 1,2 C 1,9 C 24,5 km/h
24.03.2014 21:00 4,9 C 78 % 1009,0 hPa 0,0 l/m 11,3 km/h N 1,3 C 1,2 C 25,8 km/h
24.03.2014 22:00 5,0 C 79 % 1009,4 hPa 0,0 l/m 10,7 km/h N 1,6 C 1,6 C 26,1 km/h
24.03.2014 23:00 4,9 C 75 % 1010,0 hPa 0,0 l/m 11,3 km/h N 0,8 C 1,1 C 30,6 km/h
25.03.2014 00:00 4,9 C 76 % 1010,2 hPa 0,0 l/m 9,1 km/h N 1,1 C 2,7 C 21,3 km/h
25.03.2014 01:00 4,7 C 78 % 1009,9 hPa 0,0 l/m 9,9 km/h N 1,2 C 1,8 C 22,9 km/h
25.03.2014 02:00 4,4 C 79 % 1009,5 hPa 0,0 l/m 8,7 km/h N 1,1 C 2,5 C 22,5 km/h
25.03.2014 03:00 4,1 C 80 % 1009,4 hPa 0,0 l/m 6,2 km/h N 1,0 C 3,7 C 18,9 km/h
25.03.2014 04:00 3,8 C 81 % 1009,4 hPa 0,0 l/m 4,1 km/h N 0,8 C 3,8 C 15,3 km/h
25.03.2014 05:00 3,7 C 81 % 1009,5 hPa 0,0 l/m 5,1 km/h N 0,7 C 3,7 C 19,3 km/h
25.03.2014 06:00 3,7 C 81 % 1010,1 hPa 0,0 l/m 4,3 km/h N 0,7 C 3,7 C 13,7 km/h
25.03.2014 07:00 4,2 C 79 % 1010,5 hPa 0,0 l/m 5,8 km/h N 0,9 C 3,7 C 15,3 km/h
25.03.2014 08:00 5,0 C 75 % 1010,8 hPa 0,0 l/m 8,3 km/h N 0,9 C 3,4 C 20,9 km/h
25.03.2014 09:00 6,3 C 70 % 1010,6 hPa 0,0 l/m 10,6 km/h N 1,3 C 3,2 C 23,7 km/h
25.03.2014 10:00 7,6 C 63 % 1010,1 hPa 0,0 l/m 11,6 km/h N 0,9 C 4,0 C 23,3 km/h
25.03.2014 11:00 8,6 C 58 % 1009,9 hPa 0,0 l/m 7,9 km/h N 0,7 C 7,6 C 17,7 km/h
25.03.2014 12:00 9,2 C 53 % 1009,3 hPa 0,0 l/m 6,0 km/h N 0,1 C 8,9 C 18,1 km/h
25.03.2014 13:00 9,6 C 53 % 1008,7 hPa 0,0 l/m 5,8 km/h N 0,4 C 8,9 C 12,5 km/h
25.03.2014 14:00 9,7 C 51 % 1008,5 hPa 0,0 l/m 8,0 km/h N -0,1 C 8,5 C 14,9 km/h
25.03.2014 15:00 9,7 C 46 % 1008,5 hPa 0,0 l/m 6,9 km/h N -1,3 C 9,2 C 15,3 km/h
25.03.2014 16:00 9,6 C 47 % 1008,5 hPa 0,0 l/m 2,9 km/h N -1,2 C 9,6 C 8,4 km/h
25.03.2014 17:00 8,9 C 51 % 1009,0 hPa 0,0 l/m 2,0 km/h N -0,7 C 8,9 C 6,8 km/h
25.03.2014 18:00 8,2 C 56 % 1009,4 hPa 0,0 l/m 0,2 km/h N -0,1 C 8,2 C 2,0 km/h
25.03.2014 19:00 7,5 C 62 % 1009,9 hPa 0,0 l/m 1,2 km/h N 0,8 C 7,5 C 6,4 km/h
25.03.2014 20:00 7,1 C 65 % 1010,1 hPa 0,0 l/m 0,5 km/h N 0,9 C 7,1 C 2,4 km/h
25.03.2014 21:00 6,1 C 68 % 1010,3 hPa 0,0 l/m 0,6 km/h N 0,6 C 6,1 C 6,1 km/h
25.03.2014 22:00 5,3 C 69 % 1010,6 hPa 0,0 l/m 0,1 km/h N 0,2 C 5,3 C 1,6 km/h
25.03.2014 23:00 4,1 C 74 % 1010,7 hPa 0,0 l/m 0,2 km/h N -0,1 C 4,1 C 1,6 km/h
26.03.2014 00:00 3,6 C 77 % 1010,9 hPa 0,0 l/m 0,2 km/h N -0,1 C 3,6 C 2,0 km/h
26.03.2014 01:00 3,6 C 79 % 1011,1 hPa 0,0 l/m 0,0 km/h N 0,2 C 3,6 C 0,0 km/h
26.03.2014 02:00 3,3 C 80 % 1011,3 hPa 0,0 l/m 0,0 km/h N 0,1 C 3,3 C 0,0 km/h
26.03.2014 03:00 3,1 C 81 % 1011,6 hPa 0,0 l/m 0,0 km/h N 0,2 C 3,1 C 0,0 km/h
26.03.2014 04:00 3,2 C 83 % 1011,9 hPa 0,0 l/m 0,2 km/h N 0,5 C 3,2 C 3,2 km/h
26.03.2014 05:00 2,5 C 82 % 1012,2 hPa 0,0 l/m 0,1 km/h N -0,2 C 2,5 C 1,6 km/h
26.03.2014 06:00 2,0 C 84 % 1012,9 hPa 0,0 l/m 0,0 km/h N -0,5 C 2,0 C 0,8 km/h
26.03.2014 07:00 3,2 C 84 % 1013,3 hPa 0,0 l/m 0,1 km/h N 0,7 C 3,2 C 1,2 km/h
26.03.2014 08:00 6,1 C 78 % 1013,8 hPa 0,0 l/m 0,6 km/h N 2,5 C 6,1 C 4,4 km/h
26.03.2014 09:00 8,3 C 65 % 1014,2 hPa 0,0 l/m 0,9 km/h N 1,9 C 8,3 C 6,4 km/h
26.03.2014 10:00 9,1 C 63 % 1014,4 hPa 0,0 l/m 2,3 km/h N 2,4 C 9,1 C 10,1 km/h
26.03.2014 11:00 10,7 C 54 % 1014,3 hPa 0,0 l/m 1,8 km/h N 1,8 C 10,7 C 9,6 km/h
26.03.2014 12:00 10,8 C 54 % 1014,1 hPa 0,0 l/m 2,1 km/h N 1,8 C 10,8 C 10,1 km/h
26.03.2014 13:00 12,3 C 52 % 1013,9 hPa 0,0 l/m 2,5 km/h N 2,6 C 12,3 C 12,5 km/h
26.03.2014 14:00 12,4 C 47 % 1013,8 hPa 0,0 l/m 2,8 km/h N 1,3 C 12,4 C 12,1 km/h
26.03.2014 15:00 12,1 C 49 % 1013,9 hPa 0,0 l/m 1,5 km/h N 1,5 C 12,1 C 9,7 km/h
26.03.2014 16:00 11,5 C 50 % 1014,0 hPa 0,0 l/m 2,0 km/h N 1,4 C 11,5 C 8,0 km/h
26.03.2014 17:00 11,5 C 50 % 1014,3 hPa 0,0 l/m 1,0 km/h N 1,4 C 11,5 C 4,8 km/h
26.03.2014 18:00 10,8 C 54 % 1014,7 hPa 0,0 l/m 0,1 km/h N 1,7 C 10,8 C 1,2 km/h
26.03.2014 19:00 9,2 C 59 % 1015,1 hPa 0,0 l/m 0,0 km/h N 1,5 C 9,2 C 0,0 km/h
26.03.2014 20:00 7,8 C 65 % 1015,5 hPa 0,0 l/m 0,0 km/h N 1,6 C 7,8 C 0,0 km/h
26.03.2014 21:00 6,6 C 71 % 1015,8 hPa 0,0 l/m 0,0 km/h N 1,6 C 6,6 C 0,4 km/h
26.03.2014 22:00 5,1 C 75 % 1015,7 hPa 0,0 l/m 0,0 km/h N 1,0 C 5,1 C 0,0 km/h
26.03.2014 23:00 3,8 C 78 % 1015,7 hPa 0,0 l/m 0,0 km/h N 0,3 C 3,8 C 0,0 km/h
27.03.2014 00:00 2,6 C 80 % 1015,6 hPa 0,0 l/m 0,0 km/h N -0,5 C 2,6 C 0,0 km/h
27.03.2014 01:00 1,8 C 82 % 1015,6 hPa 0,0 l/m 0,0 km/h N -0,9 C 1,8 C 0,0 km/h
27.03.2014 02:00 1,3 C 84 % 1015,5 hPa 0,0 l/m 0,0 km/h N -1,2 C 1,3 C 0,4 km/h
27.03.2014 03:00 1,3 C 84 % 1015,3 hPa 0,0 l/m 0,0 km/h N -1,0 C 1,3 C 1,2 km/h
27.03.2014 04:00 1,3 C 84 % 1015,3 hPa 0,0 l/m 0,0 km/h N -1,1 C 1,3 C 0,0 km/h
27.03.2014 05:00 1,2 C 84 % 1015,3 hPa 0,0 l/m 0,0 km/h N -1,2 C 1,2 C 0,0 km/h
27.03.2014 06:00 1,1 C 84 % 1015,5 hPa 0,0 l/m 0,0 km/h N -1,3 C 1,1 C 0,0 km/h
27.03.2014 07:00 3,3 C 82 % 1015,5 hPa 0,0 l/m 0,4 km/h N 0,5 C 3,3 C 2,8 km/h
27.03.2014 08:00 7,4 C 76 % 1015,5 hPa 0,0 l/m 0,5 km/h N 3,3 C 7,4 C 5,2 km/h
27.03.2014 09:00 9,2 C 63 % 1015,5 hPa 0,0 l/m 0,6 km/h N 2,5 C 9,2 C 6,0 km/h
27.03.2014 10:00 10,1 C 61 % 1015,4 hPa 0,0 l/m 2,0 km/h N 3,0 C 10,1 C 7,6 km/h
27.03.2014 11:00 11,8 C 62 % 1014,8 hPa 0,0 l/m 1,5 km/h N 4,7 C 11,8 C 7,6 km/h
27.03.2014 12:00 13,8 C 53 % 1014,2 hPa 0,0 l/m 2,9 km/h N 4,4 C 13,8 C 12,1 km/h
27.03.2014 13:00 15,1 C 50 % 1013,3 hPa 0,0 l/m 2,3 km/h N 4,7 C 15,1 C 12,1 km/h
27.03.2014 14:00 15,3 C 50 % 1012,5 hPa 0,0 l/m 1,6 km/h N 4,9 C 15,3 C 9,6 km/h
27.03.2014 15:00 15,0 C 49 % 1012,0 hPa 0,0 l/m 1,4 km/h N 4,3 C 15,0 C 8,9 km/h
27.03.2014 16:00 14,9 C 49 % 1011,8 hPa 0,0 l/m 0,9 km/h N 4,3 C 14,9 C 7,6 km/h
27.03.2014 17:00 14,2 C 51 % 1012,0 hPa 0,0 l/m 0,3 km/h N 4,0 C 14,2 C 3,6 km/h
27.03.2014 18:00 12,0 C 67 % 1012,2 hPa 0,3 l/m 1,3 km/h N 6,0 C 12,0 C 8,0 km/h
27.03.2014 19:00 9,8 C 76 % 1012,5 hPa 0,0 l/m 0,1 km/h N 5,7 C 9,8 C 1,2 km/h
27.03.2014 20:00 8,6 C 81 % 1012,5 hPa 0,0 l/m 0,1 km/h N 5,4 C 8,6 C 0,8 km/h
27.03.2014 21:00 8,2 C 83 % 1012,8 hPa 0,0 l/m 0,1 km/h N 5,4 C 8,2 C 2,0 km/h
27.03.2014 22:00 8,3 C 82 % 1013,1 hPa 0,0 l/m 0,3 km/h N 5,5 C 8,3 C 1,2 km/h
27.03.2014 23:00 8,4 C 79 % 1013,1 hPa 0,0 l/m 0,3 km/h N 5,0 C 8,4 C 2,4 km/h
28.03.2014 00:00 8,9 C 72 % 1013,2 hPa 0,0 l/m 0,2 km/h N 4,1 C 8,9 C 1,2 km/h
28.03.2014 01:00 8,2 C 74 % 1013,4 hPa 0,0 l/m 0,1 km/h N 3,9 C 8,2 C 2,4 km/h
28.03.2014 02:00 7,7 C 76 % 1013,4 hPa 0,0 l/m 0,1 km/h N 3,7 C 7,7 C 0,8 km/h
28.03.2014 03:00 6,5 C 77 % 1013,4 hPa 0,0 l/m 0,1 km/h N 2,8 C 6,5 C 2,8 km/h
28.03.2014 04:00 5,4 C 79 % 1013,8 hPa 0,0 l/m 0,0 km/h N 2,0 C 5,4 C 0,0 km/h
28.03.2014 05:00 4,7 C 81 % 1014,6 hPa 0,0 l/m 0,3 km/h N 1,7 C 4,7 C 2,4 km/h
28.03.2014 06:00 4,8 C 81 % 1015,1 hPa 0,0 l/m 0,6 km/h N 1,8 C 4,8 C 3,2 km/h
28.03.2014 07:00 8,0 C 74 % 1015,3 hPa 0,0 l/m 4,5 km/h N 3,6 C 8,0 C 12,5 km/h
28.03.2014 08:00 9,7 C 67 % 1015,6 hPa 0,0 l/m 5,6 km/h N 3,8 C 9,5 C 15,7 km/h
28.03.2014 09:00 11,2 C 63 % 1016,1 hPa 0,0 l/m 4,8 km/h N 4,5 C 11,2 C 14,1 km/h
28.03.2014 10:00 12,4 C 60 % 1016,4 hPa 0,0 l/m 4,4 km/h N 4,8 C 12,4 C 12,5 km/h
28.03.2014 11:00 14,0 C 57 % 1016,5 hPa 0,0 l/m 4,2 km/h N 5,6 C 14,0 C 14,5 km/h
28.03.2014 12:00 14,9 C 54 % 1016,4 hPa 0,0 l/m 4,9 km/h N 5,7 C 14,8 C 15,7 km/h
28.03.2014 13:00 15,9 C 50 % 1016,4 hPa 0,0 l/m 4,9 km/h N 5,3 C 15,9 C 16,9 km/h
28.03.2014 14:00 16,4 C 46 % 1016,3 hPa 0,0 l/m 3,3 km/h N 4,8 C 16,4 C 11,7 km/h
28.03.2014 15:00 16,4 C 45 % 1016,3 hPa 0,0 l/m 3,9 km/h N 4,4 C 16,4 C 12,1 km/h
28.03.2014 16:00 16,3 C 44 % 1016,5 hPa 0,0 l/m 4,1 km/h N 3,8 C 16,3 C 16,1 km/h
28.03.2014 17:00 15,7 C 44 % 1017,1 hPa 0,0 l/m 2,8 km/h N 3,4 C 15,7 C 13,3 km/h
28.03.2014 18:00 14,4 C 46 % 1017,8 hPa 0,0 l/m 1,3 km/h N 2,9 C 14,4 C 8,0 km/h
28.03.2014 19:00 12,0 C 51 % 1018,5 hPa 0,0 l/m 0,0 km/h N 2,0 C 12,0 C 0,4 km/h
28.03.2014 20:00 9,1 C 59 % 1019,2 hPa 0,0 l/m 0,0 km/h N 1,6 C 9,1 C 0,0 km/h
28.03.2014 21:00 7,9 C 67 % 1019,9 hPa 0,0 l/m 0,5 km/h N 2,1 C 7,9 C 3,6 km/h
28.03.2014 22:00 8,5 C 65 % 1020,1 hPa 0,0 l/m 0,1 km/h N 2,3 C 8,5 C 1,6 km/h
28.03.2014 23:00 6,9 C 70 % 1020,6 hPa 0,0 l/m 0,0 km/h N 1,7 C 6,9 C 0,4 km/h
29.03.2014 00:00 5,5 C 76 % 1021,0 hPa 0,0 l/m 0,0 km/h N 1,6 C 5,5 C 0,0 km/h
29.03.2014 01:00 5,0 C 81 % 1021,4 hPa 0,0 l/m 0,0 km/h N 2,0 C 5,0 C 0,4 km/h
29.03.2014 02:00 4,9 C 83 % 1021,6 hPa 0,0 l/m 0,2 km/h N 2,2 C 4,9 C 2,4 km/h
29.03.2014 03:00 5,3 C 84 % 1021,6 hPa 0,0 l/m 0,1 km/h N 2,8 C 5,3 C 1,2 km/h
29.03.2014 04:00 4,9 C 84 % 1021,7 hPa 0,0 l/m 0,3 km/h N 2,4 C 4,9 C 1,6 km/h
29.03.2014 05:00 3,8 C 84 % 1022,2 hPa 0,0 l/m 0,0 km/h N 1,4 C 3,8 C 0,0 km/h
29.03.2014 06:00 3,7 C 84 % 1022,7 hPa 0,0 l/m 0,1 km/h N 1,2 C 3,7 C 1,6 km/h
29.03.2014 07:00 5,9 C 82 % 1023,1 hPa 0,0 l/m 0,8 km/h N 3,0 C 5,9 C 4,8 km/h
29.03.2014 08:00 9,5 C 80 % 1023,2 hPa 0,0 l/m 0,8 km/h N 6,2 C 9,5 C 4,4 km/h
29.03.2014 09:00 12,7 C 68 % 1023,3 hPa 0,0 l/m 0,8 km/h N 6,9 C 12,7 C 6,0 km/h
29.03.2014 10:00 14,6 C 62 % 1023,0 hPa 0,0 l/m 1,0 km/h N 7,4 C 14,6 C 6,0 km/h
29.03.2014 11:00 16,4 C 58 % 1022,7 hPa 0,0 l/m 1,8 km/h N 8,0 C 16,4 C 8,4 km/h
29.03.2014 12:00 17,3 C 52 % 1022,3 hPa 0,0 l/m 1,7 km/h N 7,4 C 17,3 C 9,6 km/h
29.03.2014 13:00 18,3 C 49 % 1021,8 hPa 0,0 l/m 2,3 km/h N 7,5 C 18,3 C 9,3 km/h
29.03.2014 14:00 18,4 C 47 % 1021,3 hPa 0,0 l/m 2,1 km/h N 6,9 C 18,4 C 10,9 km/h
29.03.2014 15:00 18,8 C 44 % 1020,7 hPa 0,0 l/m 2,4 km/h N 6,1 C 18,8 C 9,3 km/h
29.03.2014 16:00 18,6 C 40 % 1020,4 hPa 0,0 l/m 1,7 km/h N 4,7 C 18,6 C 9,3 km/h
29.03.2014 17:00 17,7 C 40 % 1020,5 hPa 0,0 l/m 1,2 km/h N 3,8 C 17,7 C 7,2 km/h
29.03.2014 18:00 15,7 C 47 % 1020,6 hPa 0,0 l/m 0,1 km/h N 4,3 C 15,7 C 0,8 km/h
29.03.2014 19:00 12,1 C 57 % 1020,9 hPa 0,0 l/m 0,0 km/h N 3,8 C 12,1 C 0,0 km/h
29.03.2014 20:00 9,4 C 68 % 1021,0 hPa 0,0 l/m 0,0 km/h N 3,7 C 9,4 C 0,4 km/h
29.03.2014 21:00 7,6 C 74 % 1020,8 hPa 0,0 l/m 0,0 km/h N 3,2 C 7,6 C 0,0 km/h
29.03.2014 22:00 6,3 C 78 % 1020,7 hPa 0,0 l/m 0,0 km/h N 2,8 C 6,3 C 0,8 km/h
29.03.2014 23:00 5,3 C 81 % 1020,2 hPa 0,0 l/m 0,0 km/h N 2,2 C 5,3 C 0,0 km/h
30.03.2014 00:00 4,4 C 83 % 1019,8 hPa 0,0 l/m 0,1 km/h N 1,7 C 4,4 C 2,0 km/h
30.03.2014 01:00 3,8 C 84 % 1019,2 hPa 0,0 l/m 0,0 km/h N 1,4 C 3,8 C 0,8 km/h
30.03.2014 03:00 3,0 C 84 % 1018,5 hPa 0,0 l/m 0,0 km/h N 0,5 C 3,0 C 0,0 km/h
30.03.2014 04:00 2,4 C 84 % 1018,1 hPa 0,0 l/m 0,0 km/h N -0,0 C 2,4 C 0,0 km/h
30.03.2014 05:00 1,9 C 84 % 1017,7 hPa 0,0 l/m 0,0 km/h N -0,5 C 1,9 C 0,0 km/h
30.03.2014 06:00 1,6 C 84 % 1017,7 hPa 0,0 l/m 0,0 km/h N -0,9 C 1,6 C 0,0 km/h
30.03.2014 07:00 1,8 C 82 % 1018,0 hPa 0,0 l/m 0,0 km/h N -0,9 C 1,8 C 0,0 km/h
30.03.2014 08:00 5,4 C 79 % 1018,0 hPa 0,0 l/m 0,5 km/h N 2,0 C 5,4 C 5,6 km/h
30.03.2014 09:00 9,1 C 80 % 1017,9 hPa 0,0 l/m 0,9 km/h N 5,8 C 9,1 C 5,6 km/h
30.03.2014 10:00 12,9 C 66 % 1017,5 hPa 0,0 l/m 1,1 km/h N 6,6 C 12,9 C 6,4 km/h
30.03.2014 11:00 15,4 C 56 % 1017,2 hPa 0,0 l/m 1,4 km/h N 6,7 C 15,4 C 6,8 km/h
30.03.2014 12:00 16,6 C 55 % 1016,7 hPa 0,0 l/m 1,9 km/h N 7,4 C 16,6 C 8,0 km/h
30.03.2014 13:00 18,1 C 51 % 1016,1 hPa 0,0 l/m 1,6 km/h N 7,9 C 18,1 C 7,6 km/h
30.03.2014 14:00 19,4 C 42 % 1015,4 hPa 0,0 l/m 1,6 km/h N 6,2 C 19,4 C 7,6 km/h
30.03.2014 15:00 19,9 C 41 % 1014,7 hPa 0,0 l/m 1,9 km/h N 6,1 C 19,9 C 8,5 km/h
30.03.2014 16:00 20,3 C 39 % 1014,2 hPa 0,0 l/m 0,8 km/h N 5,8 C 20,3 C 6,0 km/h
30.03.2014 17:00 20,1 C 38 % 1014,0 hPa 0,0 l/m 0,9 km/h N 5,4 C 20,1 C 6,0 km/h
30.03.2014 18:00 19,5 C 40 % 1013,9 hPa 0,0 l/m 0,1 km/h N 5,5 C 19,5 C 1,2 km/h
30.03.2014 19:00 16,8 C 48 % 1014,1 hPa 0,0 l/m 0,0 km/h N 5,6 C 16,8 C 0,0 km/h
30.03.2014 20:00 13,1 C 59 % 1014,5 hPa 0,0 l/m 0,1 km/h N 5,3 C 13,1 C 1,6 km/h
30.03.2014 21:00 10,9 C 65 % 1014,6 hPa 0,0 l/m 0,0 km/h N 4,4 C 10,9 C 1,2 km/h
30.03.2014 22:00 9,3 C 70 % 1014,5 hPa 0,0 l/m 0,1 km/h N 4,1 C 9,3 C 2,0 km/h
30.03.2014 23:00 9,1 C 70 % 1014,5 hPa 0,0 l/m 0,2 km/h N 3,9 C 9,1 C 3,6 km/h
Min-Datum _ 27.03.14 30.03.14 24.03.14 - 25.03.14 - 25.03.14 24.03.14 25.03.14
_ Min-Zeit 06:15 17:45 02:30 - 18:15 - 15:30 21:15 18:30
Minimum _ 1,0 C 37 % 1005,0 hPa - 0,0 km/h - -2,0 C -0,8 C 0,0 km/h
Max-Datum _ 30.03.14 26.03.14 29.03.14 24.03.14 24.03.14 - 30.03.14 30.03.14 24.03.14
_ Max-Zeit 16:00 06:30 09:00 07:00 13:30 - 13:00 16:00 09:00
Maximum _ 20,4 C 84 % 1023,4 hPa 0,5 l/m 15,3 km/h
N
- 8,3 C 20,4 C 38,6 km/h
N
Durchschnitt _ 8,6 C 68 % 1014,1 hPa #0,8 l/m 2,8 km/h N 2,6 C 8,1 C 8,5 km/h